Fairbanks, Indiana
Current Conditions -  °F | °C
As of 4:35 PM on Sunday 23 Nov 2014 (Local Time) from KRSV Reporting Station
Moderate Rain Moderate Rain  
Wind Chill: 52°   Ceiling: 500
Heat Index: 52°   Visibility: 5mi
Dew Point: 51°   Wind: 6mph
Humidity: 98%   Direction: 110°ESE
Pressure: 29.45"   Gusts: NA
Location:  39.22°N, 87.52°W
Report Text: KRSV 232135Z AUTO 11005KT 5SM RA OVC005 11/11 A2945 RMK AO2 P0004 T01100107
Loading
Personal Weather Stations






























Interactive Weather Map New forecast layout! Learn more

10-Day Weather Forecast

Advertisements
Track Severe Weather on mobile